Latest Weather Observations for Ivanhoe Airport

IDN60801

Issued at 5:05 pm EST Monday 1 September 2014 (issued every 30 minutes, with the page automatically refreshed every 10 minutes)

About weather observations | Map of weather stations | Latest weather observations for NSW | Other Formats
Station Details ID: 049000 Name: IVANHOE AERODROME AWS Lat: -32.88 Lon: 144.31 Height: 100.0 m
Data from the previous 72 hours. | See also: Recent months at Ivanhoe Airport
Date/Time
EST
Temp
°C
App
Temp
°C
Dew
Point
Rel
Hum
%
Delta-T
°C
Wind Press
QNH
hPa
Press
MSL
hPa
Rain
since 9 am
mm
Dir
 
Spd
km/h
Gust
km/h
Spd
kts
Gust
kts
01/05:00pm 17.1 10.8 7.5 53 4.8 SW 30 48 16 26 1012.0 1011.9 0.0
01/04:41pm 17.5 10.6 7.3 51 5.1 SW 33 52 18 28 1011.7 - 0.0
01/04:30pm 18.2 11.9 7.3 49 5.5 SW 30 43 16 23 1011.3 - 0.0
01/04:00pm 19.3 12.0 4.3 37 7.2 SW 32 43 17 23 1011.0 1010.9 0.0
01/03:30pm 21.4 13.8 -1.8 21 10.1 WSW 28 44 15 24 1010.1 - 0.0
01/03:00pm 23.3 15.9 -0.9 20 10.9 W 28 37 15 20 1010.2 1010.1 0.0
01/02:56pm 23.8 16.2 -1.9 18 11.4 WNW 28 46 15 25 1010.1 - 0.0
01/02:30pm 24.4 16.1 -1.4 18 11.6 WNW 32 44 17 24 1010.0 - 0.0
01/02:02pm 24.3 16.0 -1.5 18 11.5 NW 32 50 17 27 1010.1 - 0.0
01/02:00pm 24.3 16.0 -1.5 18 11.5 NW 32 44 17 24 1010.1 1010.0 0.0
01/01:30pm 24.8 17.8 -0.4 19 11.5 NW 26 32 14 17 1010.4 - 0.0
01/01:00pm 25.1 17.3 -0.9 18 11.8 NW 30 41 16 22 1010.9 1010.8 0.0
01/12:30pm 24.8 18.4 1.0 21 11.2 NNW 24 37 13 20 1011.4 - 0.0
01/12:00pm 23.9 17.1 0.9 22 10.7 NNW 26 37 14 20 1011.9 1011.8 0.0
01/11:30am 22.6 15.4 0.4 23 10.1 NNW 28 39 15 21 1012.4 - 0.0
01/11:00am 22.1 15.7 1.2 25 9.7 NNW 24 35 13 19 1012.7 1012.6 0.0
01/10:30am 21.2 14.4 1.0 26 9.2 N 26 35 14 19 1013.2 - 0.0
01/10:00am 20.8 15.2 1.1 27 9.0 N 20 32 11 17 1013.4 1013.3 0.0
01/09:30am 19.3 13.3 0.8 29 8.3 N 22 32 12 17 1013.7 - 0.0
01/09:00am 17.7 12.3 1.2 33 7.4 N 19 26 10 14 1013.9 1014.0 0.0
01/08:30am 16.6 11.1 0.7 34 7.0 N 19 28 10 15 1014.1 - 0.0
01/08:00am 15.9 10.3 0.9 36 6.5 N 20 26 11 14 1013.9 1014.0 0.0
01/07:30am 14.6 9.1 0.5 38 6.0 N 19 28 10 15 1014.2 - 0.0
01/07:00am 13.8 8.3 0.5 40 5.6 N 19 24 10 13 1013.9 1014.0 0.0
01/06:30am 13.4 8.6 0.1 40 5.6 N 15 20 8 11 1013.9 - 0.0
01/06:00am 13.9 9.1 0.2 39 5.8 N 15 19 8 10 1013.5 1013.6 0.0
01/05:30am 14.3 9.2 0.5 39 5.9 N 17 20 9 11 1013.4 - 0.0
01/05:00am 14.4 9.6 0.3 38 6.0 N 15 20 8 11 1013.4 1013.4 0.0
01/04:30am 14.3 9.9 0.5 39 5.9 N 13 17 7 9 1013.4 - 0.0
01/04:00am 14.7 9.9 0.5 38 6.1 N 15 19 8 10 1013.6 1013.7 0.0
01/03:30am 15.0 10.7 0.8 38 6.1 N 13 19 7 10 1013.5 - 0.0
01/03:00am 13.7 9.4 1.0 42 5.4 N 13 15 7 8 1013.5 1013.6 0.0
01/02:30am 13.5 8.8 0.9 42 5.4 N 15 17 8 9 1013.6 - 0.0
01/02:00am 13.0 8.8 1.4 45 5.0 N 13 17 7 9 1014.0 1014.1 0.0
01/01:30am 12.5 8.2 0.9 45 4.9 N 13 15 7 8 1014.1 - 0.0
01/01:00am 12.3 8.0 1.0 46 4.8 N 13 15 7 8 1014.3 1014.4 0.0
01/12:30am 12.8 8.6 1.5 46 4.9 N 13 13 7 7 1014.3 - 0.0
01/12:00am 12.8 8.6 1.5 46 4.9 N 13 15 7 8 1014.6 1014.7 0.0
 
Date/Time
EST
Temp
°C
App
Temp
°C
Dew
Point
Rel
Hum
%
Delta-T
°C
Wind Press
QNH
hPa
Press
MSL
hPa
Rain
since 9 am
mm
Dir
 
Spd
km/h
Gust
km/h
Spd
kts
Gust
kts
31/11:30pm 12.8 8.5 1.2 45 5.0 N 13 15 7 8 1014.7 - 0.0
31/11:00pm 13.5 9.2 1.2 43 5.3 NNE 13 15 7 8 1014.9 1015.0 0.0
31/10:30pm 14.8 10.9 1.0 39 6.0 N 11 13 6 7 1015.3 - 0.0
31/10:00pm 15.7 11.8 1.1 37 6.4 N 11 13 6 7 1015.5 1015.6 0.0
31/09:30pm 17.2 12.9 1.2 34 7.1 N 13 13 7 7 1015.7 - 0.0
31/09:00pm 17.2 13.4 1.6 35 7.0 N 11 13 6 7 1015.6 1015.7 0.0
31/08:30pm 16.7 12.8 1.2 35 6.9 N 11 13 6 7 1015.8 - 0.0
31/08:00pm 18.2 14.3 1.3 32 7.6 N 11 13 6 7 1016.0 1016.1 0.0
31/07:30pm 18.6 14.7 1.2 31 7.8 N 11 13 6 7 1016.0 - 0.0
31/07:00pm 18.9 15.4 1.4 31 7.9 N 9 11 5 6 1015.9 1016.0 0.0
31/06:30pm 19.5 16.0 1.0 29 8.3 N 9 11 5 6 1015.7 - 0.0
31/06:00pm 20.9 17.4 1.2 27 9.0 NNW 9 11 5 6 1015.5 1015.6 0.0
31/05:30pm 22.0 18.5 1.1 25 9.6 NNW 9 15 5 8 1015.3 - 0.0
31/05:00pm 23.5 19.2 1.2 23 10.4 NNW 13 19 7 10 1015.3 1015.4 0.0
31/04:30pm 24.4 19.4 1.3 22 10.9 NNW 17 24 9 13 1015.2 - 0.0
31/04:00pm 24.5 19.9 1.4 22 10.9 WNW 15 24 8 13 1015.4 1015.5 0.0
31/03:30pm 24.7 20.5 1.6 22 11.0 N 13 24 7 13 1015.5 - 0.0
31/03:00pm 24.8 20.1 1.0 21 11.2 N 15 22 8 12 1015.7 1015.8 0.0
31/02:30pm 24.9 20.7 1.7 22 11.1 N 13 17 7 9 1016.0 - 0.0
31/02:00pm 25.0 20.1 1.8 22 11.1 N 17 26 9 14 1016.5 1016.5 0.0
31/01:30pm 24.1 18.8 1.7 23 10.6 NNW 19 28 10 15 1017.0 - 0.0
31/01:00pm 23.8 19.7 2.0 24 10.3 NW 13 24 7 13 1017.7 1017.7 0.0
31/12:30pm 23.7 18.5 2.5 25 10.2 NW 19 26 10 14 1018.1 - 0.0
31/12:00pm 23.7 19.0 3.1 26 10.0 NNW 17 22 9 12 1018.7 1018.7 0.0
31/11:30am 22.7 17.6 3.3 28 9.4 N 19 30 10 16 1019.1 - 0.0
31/11:00am 21.9 16.8 3.1 29 9.0 N 19 28 10 15 1019.6 1019.6 0.0
31/10:30am 21.0 15.7 2.8 30 8.6 N 20 28 11 15 1019.9 - 0.0
31/10:00am 19.9 14.7 2.3 31 8.1 N 19 28 10 15 1020.3 1020.3 0.0
31/09:30am 18.4 13.5 2.3 34 7.4 N 17 26 9 14 1020.7 - 0.0
31/09:00am 17.9 13.2 3.4 38 6.8 N 17 20 9 11 1020.8 1020.8 -
31/08:30am 15.7 10.9 2.5 41 5.9 N 17 22 9 12 1020.8 - -
31/08:00am 13.7 9.7 2.6 47 4.9 N 13 19 7 10 1020.7 1020.7 -
31/07:30am 10.5 6.8 2.1 56 3.6 N 11 11 6 6 1020.6 - -
31/07:00am 8.3 4.0 1.2 61 2.9 N 13 15 7 8 1020.2 1020.2 -
31/06:30am 8.0 3.7 0.7 60 2.9 NNE 13 15 7 8 1019.8 - -
31/06:00am 9.2 4.5 1.1 57 3.3 NNE 15 17 8 9 1019.5 1019.5 -
31/05:30am 8.5 4.2 1.2 60 3.0 NNE 13 15 7 8 1019.4 - -
31/05:00am 8.5 4.2 1.0 59 3.0 NNE 13 13 7 7 1019.4 1019.4 -
31/04:30am 9.3 5.0 1.0 56 3.4 NNE 13 15 7 8 1019.3 - -
31/04:00am 9.6 5.3 1.3 56 3.4 NE 13 15 7 8 1019.1 1019.1 -
31/03:30am 9.3 5.0 1.2 57 3.3 NNE 13 15 7 8 1019.2 - -
31/03:00am 9.9 5.7 1.5 56 3.5 NNE 13 15 7 8 1019.5 1019.5 -
31/02:30am 10.7 6.1 1.3 52 3.9 NNE 15 17 8 9 1019.7 - -
31/02:00am 11.2 7.0 1.5 51 4.1 NNE 13 17 7 9 1019.8 1019.8 -
31/01:30am 11.7 7.5 1.4 49 4.4 NE 13 17 7 9 1020.0 - -
31/01:00am 13.4 8.4 1.4 44 5.2 NE 17 20 9 11 1020.1 1020.1 -
31/12:30am 12.7 8.2 2.0 48 4.6 NE 15 17 8 9 1020.3 - -
31/12:00am 12.5 8.0 2.1 49 4.5 NE 15 17 8 9 1020.5 1020.5 -
 
Date/Time
EST
Temp
°C
App
Temp
°C
Dew
Point
Rel
Hum
%
Delta-T
°C
Wind Press
QNH
hPa
Press
MSL
hPa
Rain
since 9 am
mm
Dir
 
Spd
km/h
Gust
km/h
Spd
kts
Gust
kts
30/11:30pm 12.3 8.2 2.5 51 4.3 ENE 13 15 7 8 1020.7 - -
30/11:00pm 12.8 8.7 2.4 49 4.5 ENE 13 15 7 8 1020.9 1020.9 -
30/10:30pm 13.8 9.7 2.4 46 5.0 ENE 13 15 7 8 1021.0 - 0.0
30/10:00pm 14.2 10.1 2.5 45 5.2 NE 13 15 7 8 1021.1 1021.1 0.0
30/09:30pm 14.3 10.6 2.2 44 5.4 NE 11 13 6 7 1021.2 - 0.0
30/09:00pm 14.5 10.4 2.4 44 5.4 ENE 13 13 7 7 1021.3 1021.3 0.0
30/08:30pm 14.6 10.5 2.2 43 5.5 ENE 13 15 7 8 1021.0 - 0.0
30/08:00pm 15.6 11.3 1.3 38 6.3 E 13 13 7 7 1020.8 1020.8 0.0
30/07:30pm 16.8 13.2 0.9 34 7.0 ENE 9 11 5 6 1020.6 - 0.0
30/07:00pm 18.0 13.7 1.1 32 7.5 E 13 13 7 7 1020.5 1020.5 0.0
30/06:30pm 19.0 15.5 1.1 30 8.1 E 9 11 5 6 1020.4 - 0.0
30/06:00pm 20.2 16.3 1.1 28 8.7 E 11 13 6 7 1020.3 1020.3 0.0
30/05:30pm 22.4 18.9 1.4 25 9.8 E 9 11 5 6 1020.3 - 0.0
30/05:00pm 23.6 21.4 1.3 23 10.4 NW 2 7 1 4 1020.4 1020.4 0.0
30/04:30pm 24.3 21.9 1.9 23 10.7 N 4 9 2 5 1020.3 - 0.0
30/04:00pm 23.9 20.3 0.9 22 10.7 SW 9 13 5 7 1020.3 1020.3 0.0
30/03:30pm 23.8 20.2 0.8 22 10.7 SSW 9 15 5 8 1020.5 - 0.0
30/03:00pm 23.6 19.7 1.3 23 10.4 N 11 24 6 13 1020.6 1020.6 0.0
30/02:30pm 23.2 19.6 0.9 23 10.3 N 9 20 5 11 1021.1 - 0.0
30/02:00pm 23.3 19.9 1.6 24 10.2 NE 9 15 5 8 1021.4 1021.4 0.0
30/01:30pm 23.3 20.5 2.2 25 10.0 ESE 6 11 3 6 1021.8 - 0.0
30/01:00pm 22.9 19.2 2.4 26 9.7 NNW 11 19 6 10 1022.3 1022.4 0.0
30/12:30pm 22.9 19.3 2.9 27 9.6 N 11 19 6 10 1023.1 - 0.0
30/12:00pm 22.2 18.3 3.3 29 9.1 N 13 19 7 10 1023.5 1023.6 0.0
30/11:30am 21.4 17.9 3.6 31 8.6 NNE 11 20 6 11 1023.9 - 0.0
30/11:00am 21.1 17.4 4.2 33 8.2 NNE 13 20 7 11 1024.3 1024.4 0.0
30/10:30am 20.1 15.6 4.2 35 7.7 NNE 17 20 9 11 1024.6 - 0.0
30/10:00am 19.4 15.4 4.7 38 7.1 NE 15 20 8 11 1024.9 1025.0 0.0
30/09:30am 17.8 14.0 4.0 40 6.5 NNE 13 15 7 8 1025.1 - 0.0
30/09:00am 16.5 12.8 4.2 44 5.7 NNE 13 17 7 9 1025.2 1025.3 0.0
30/08:30am 14.0 10.9 3.8 50 4.7 NE 9 11 5 6 1025.1 - 0.0
30/08:00am 10.9 7.7 3.2 59 3.4 ENE 9 13 5 7 1025.0 1025.1 0.0
30/07:30am 9.1 5.9 2.9 65 2.7 NE 9 11 5 6 1024.8 - 0.0
30/07:00am 7.0 3.1 1.1 66 2.4 NE 11 13 6 7 1024.5 1024.6 0.0
30/06:30am 7.7 4.2 1.3 64 2.6 NE 9 11 5 6 1024.3 - 0.0
30/06:00am 7.3 4.2 1.2 65 2.5 SE 7 9 4 5 1024.0 1024.1 0.0
30/05:30am 7.7 4.8 1.5 65 2.5 SE 6 7 3 4 1023.7 - 0.0
30/05:00am 7.5 5.7 1.1 64 2.6 CALM 0 0 0 0 1023.7 1023.8 0.0
30/04:30am 7.6 5.4 0.8 62 2.7 SSE 2 9 1 5 1023.5 - 0.0
30/04:00am 8.6 6.8 1.3 60 3.0 CALM 0 4 0 2 1023.6 1023.7 0.0
30/03:30am 8.9 5.8 1.3 59 3.1 NW 7 9 4 5 1023.6 - 0.0
30/03:00am 8.6 5.1 1.1 59 3.0 WNW 9 11 5 6 1023.8 1023.9 0.0
30/02:30am 7.9 4.0 1.1 62 2.8 WNW 11 13 6 7 1024.0 - 0.0
30/02:00am 10.8 7.0 1.9 54 3.8 NE 11 13 6 7 1024.0 1024.1 0.0
30/01:30am 11.2 7.8 1.7 52 4.0 NNE 9 11 5 6 1024.1 - 0.0
30/01:00am 11.5 8.1 2.0 52 4.1 NE 9 11 5 6 1024.1 1024.2 0.0
30/12:30am 11.4 8.3 1.4 50 4.2 NE 7 9 4 5 1024.0 - 0.0
30/12:00am 12.2 8.0 1.8 49 4.4 NNE 13 15 7 8 1024.0 1024.1 0.0
 
Date/Time
EST
Temp
°C
App
Temp
°C
Dew
Point
Rel
Hum
%
Delta-T
°C
Wind Press
QNH
hPa
Press
MSL
hPa
Rain
since 9 am
mm
Dir
 
Spd
km/h
Gust
km/h
Spd
kts
Gust
kts
29/11:30pm 12.2 8.4 1.5 48 4.6 ENE 11 15 6 8 1024.1 - 0.0
29/11:00pm 13.8 10.4 1.8 44 5.2 NE 9 11 5 6 1024.1 1024.2 0.0
29/10:30pm 13.6 10.2 1.6 44 5.2 ENE 9 9 5 5 1024.2 - 0.0
29/10:00pm 13.6 9.8 1.6 44 5.2 ENE 11 13 6 7 1024.4 1024.5 0.0
29/09:30pm 14.8 11.8 1.7 41 5.8 ENE 7 9 4 5 1024.3 - 0.0
29/09:00pm 14.7 11.3 1.6 41 5.7 E 9 11 5 6 1024.3 1024.4 0.0
29/08:30pm 15.7 12.2 1.4 38 6.3 ESE 9 11 5 6 1024.5 - 0.0
29/08:00pm 17.3 13.7 0.9 33 7.2 SSE 9 11 5 6 1024.5 1024.6 0.0
29/07:30pm 17.4 15.6 1.4 34 7.1 CALM 0 0 0 0 1024.5 - 0.0
29/07:00pm 17.2 14.3 1.2 34 7.1 SSE 6 6 3 3 1024.2 1024.3 0.0
29/06:30pm 18.4 15.4 1.0 31 7.8 SSE 6 6 3 3 1024.1 - 0.0
29/06:00pm 20.3 17.2 1.2 28 8.7 S 7 9 4 5 1024.2 1024.3 0.0
29/05:30pm 22.1 20.0 1.7 26 9.5 S 2 11 1 6 1024.1 - 0.0

Other Formats:

Comma delimited format used in spreadsheet applications
http://www.bom.gov.au/fwo/IDN60801/IDN60801.95697.axf

JavaScript Object Notation format (JSON) in row-major order
http://www.bom.gov.au/fwo/IDN60801/IDN60801.95697.json